createdAt,value
2022-11-29T00:01:01.004Z,30.65
2022-11-29T00:03:28.591Z,30.65
2022-11-29T00:05:55.980Z,31.80
2022-11-29T00:08:24.213Z,34.97
2022-11-29T00:10:51.059Z,34.15
2022-11-29T00:13:18.014Z,31.35
2022-11-29T00:15:44.753Z,32.95
2022-11-29T00:18:11.509Z,32.90
2022-11-29T00:20:39.429Z,33.50
2022-11-29T00:23:06.425Z,37.97
2022-11-29T00:25:33.344Z,34.78
2022-11-29T00:28:00.049Z,35.70
2022-11-29T00:30:27.715Z,33.88
2022-11-29T00:32:54.505Z,34.33
2022-11-29T00:35:21.258Z,35.85
2022-11-29T00:37:47.973Z,34.25
2022-11-29T00:40:14.740Z,31.88
2022-11-29T00:42:41.463Z,32.63
2022-11-29T00:45:08.495Z,30.50
2022-11-29T00:47:35.291Z,34.50
2022-11-29T00:50:02.021Z,36.60
2022-11-29T00:52:29.329Z,31.73
2022-11-29T00:54:56.084Z,34.03
2022-11-29T00:57:22.868Z,34.17
2022-11-29T00:59:49.601Z,30.70
2022-11-29T01:02:16.422Z,31.48
2022-11-29T01:04:43.592Z,31.65
2022-11-29T01:07:10.498Z,29.10
2022-11-29T01:09:37.201Z,27.02
2022-11-29T01:12:04.145Z,32.25
2022-11-29T01:14:30.858Z,32.60
2022-11-29T01:16:57.654Z,34.35
2022-11-29T01:19:24.507Z,33.78
2022-11-29T01:21:51.192Z,28.58
2022-11-29T01:24:17.899Z,33.30
2022-11-29T01:26:44.611Z,32.15
2022-11-29T01:29:12.768Z,31.73
2022-11-29T01:31:39.561Z,29.65
2022-11-29T01:34:07.439Z,31.90
2022-11-29T01:36:35.198Z,29.63
2022-11-29T01:39:04.174Z,29.90
2022-11-29T01:41:33.720Z,35.45
2022-11-29T01:44:12.514Z,37.42
2022-11-29T01:46:44.817Z,31.25
2022-11-29T01:49:20.953Z,31.67
2022-11-29T01:52:25.585Z,29.63
2022-11-29T01:54:56.680Z,25.98
2022-11-29T01:57:23.966Z,29.45
2022-11-29T01:59:56.640Z,25.58
2022-11-29T02:02:37.965Z,27.98
2022-11-29T02:05:05.557Z,27.33
2022-11-29T02:07:32.859Z,29.48
2022-11-29T02:10:00.940Z,24.98
2022-11-29T02:12:27.726Z,27.50
2022-11-29T02:15:13.436Z,30.70
2022-11-29T02:18:03.242Z,27.25
2022-11-29T02:20:59.576Z,24.35
2022-11-29T02:23:33.291Z,25.13
2022-11-29T02:26:18.567Z,28.37
2022-11-29T02:28:50.292Z,29.75
2022-11-29T02:31:35.420Z,29.52
2022-11-29T02:34:16.474Z,27.98
2022-11-29T02:37:22.525Z,29.73
2022-11-29T02:40:22.673Z,26.83
2022-11-29T02:42:57.756Z,30.20
2022-11-29T02:45:33.912Z,28.85
2022-11-29T02:48:30.113Z,30.52
2022-11-29T02:51:26.079Z,30.70
2022-11-29T02:54:12.016Z,31.95
2022-11-29T02:56:56.638Z,33.75
2022-11-29T02:59:48.023Z,27.98
2022-11-29T03:02:17.787Z,30.80
2022-11-29T03:05:17.334Z,30.48
2022-11-29T03:07:52.922Z,29.85
2022-11-29T03:10:59.509Z,28.55
2022-11-29T03:14:07.429Z,28.75
2022-11-29T03:16:43.532Z,34.05
2022-11-29T03:19:29.142Z,32.85
2022-11-29T03:22:25.556Z,29.00
2022-11-29T03:25:08.926Z,25.73
2022-11-29T03:27:42.370Z,28.90
2022-11-29T03:30:13.598Z,29.88
2022-11-29T03:33:00.555Z,32.65
2022-11-29T03:35:51.607Z,31.13
2022-11-29T03:38:32.772Z,30.55
2022-11-29T03:41:24.787Z,30.23
2022-11-29T03:43:59.826Z,29.27
2022-11-29T03:46:46.074Z,32.75
2022-11-29T03:49:22.312Z,31.52
2022-11-29T03:52:06.326Z,30.02
2022-11-29T03:54:42.292Z,32.88
2022-11-29T03:57:09.688Z,32.90
2022-11-29T03:59:54.101Z,34.78
2022-11-29T04:03:05.900Z,30.10
2022-11-29T04:06:09.793Z,31.88
2022-11-29T04:08:42.393Z,29.17
2022-11-29T04:11:54.837Z,35.30
2022-11-29T04:14:24.801Z,32.30
2022-11-29T04:17:23.268Z,32.90
2022-11-29T04:20:23.579Z,34.75
2022-11-29T04:23:10.047Z,35.15
2022-11-29T04:25:55.134Z,34.80
2022-11-29T04:28:33.708Z,34.47
2022-11-29T04:31:37.280Z,31.90
2022-11-29T04:34:22.095Z,33.80
2022-11-29T04:37:18.543Z,31.73
2022-11-29T04:40:31.206Z,30.60
2022-11-29T04:43:19.012Z,33.83
2022-11-29T04:46:11.776Z,36.08
2022-11-29T04:49:09.321Z,36.13
2022-11-29T04:52:03.240Z,36.28
2022-11-29T04:57:18.763Z,32.05
2022-11-29T04:59:54.392Z,33.00
2022-11-29T05:02:52.869Z,33.22
2022-11-29T05:06:06.470Z,33.65
2022-11-29T05:08:38.817Z,33.17
2022-11-29T05:11:50.268Z,33.95
2022-11-29T05:14:35.164Z,38.05
2022-11-29T05:17:20.866Z,37.20
2022-11-29T05:20:03.258Z,37.10
2022-11-29T05:22:44.307Z,33.42
2022-11-29T05:25:18.699Z,35.88
2022-11-29T05:28:05.668Z,37.72
2022-11-29T05:31:11.174Z,38.35
2022-11-29T05:33:37.899Z,37.92
2022-11-29T05:36:14.557Z,38.35
2022-11-29T05:39:04.313Z,37.58
2022-11-29T05:41:57.606Z,44.97
2022-11-29T05:44:33.264Z,39.95
2022-11-29T05:47:02.560Z,37.90
2022-11-29T05:49:41.578Z,39.25
2022-11-29T05:52:56.826Z,32.03
2022-11-29T05:55:35.476Z,33.90
2022-11-29T05:58:17.519Z,37.92
2022-11-29T06:01:13.654Z,42.83
2022-11-29T06:03:52.353Z,38.30
2022-11-29T06:06:35.150Z,39.25
2022-11-29T06:09:13.141Z,46.70
2022-11-29T06:11:47.389Z,41.45
2022-11-29T06:14:24.240Z,37.47
2022-11-29T06:17:02.317Z,38.75
2022-11-29T06:19:54.134Z,42.72
2022-11-29T06:23:10.564Z,45.15
2022-11-29T06:25:44.228Z,48.15
2022-11-29T06:28:26.147Z,45.85
2022-11-29T06:31:28.321Z,39.55
2022-11-29T06:34:10.991Z,38.97
2022-11-29T06:36:41.097Z,37.75
2022-11-29T06:39:10.249Z,36.20
2022-11-29T06:41:37.396Z,38.15
2022-11-29T06:44:05.305Z,40.33
2022-11-29T06:46:45.469Z,39.15
2022-11-29T06:49:41.796Z,36.53
2022-11-29T06:52:14.662Z,34.15
2022-11-29T06:55:05.154Z,36.67
2022-11-29T06:57:57.268Z,34.63
2022-11-29T07:00:28.237Z,36.03
2022-11-29T07:03:13.645Z,39.35
2022-11-29T07:05:40.905Z,41.28
2022-11-29T07:08:16.284Z,38.60
2022-11-29T07:10:43.818Z,40.67
2022-11-29T07:13:14.014Z,42.78
2022-11-29T07:15:56.252Z,36.92
2022-11-29T07:19:07.375Z,35.65
2022-11-29T07:21:43.280Z,37.95
2022-11-29T07:24:20.299Z,36.35
2022-11-29T07:27:00.032Z,40.58
2022-11-29T07:29:39.422Z,41.45
2022-11-29T07:32:23.397Z,40.25
2022-11-29T07:35:03.819Z,41.55
2022-11-29T07:37:49.065Z,35.25
2022-11-29T07:40:24.216Z,37.00
2022-11-29T07:43:09.156Z,40.70
2022-11-29T07:45:36.747Z,38.67
2022-11-29T07:48:04.564Z,37.25
2022-11-29T07:50:31.573Z,42.70
2022-11-29T07:52:59.680Z,31.60
2022-11-29T07:55:26.737Z,36.28
2022-11-29T07:57:53.584Z,40.05
2022-11-29T08:00:21.202Z,39.60
2022-11-29T08:02:49.440Z,39.75
2022-11-29T08:05:16.551Z,38.35
2022-11-29T08:07:43.543Z,37.90
2022-11-29T08:10:13.716Z,38.20
2022-11-29T08:12:50.061Z,36.80
2022-11-29T08:15:19.025Z,30.83
2022-11-29T08:17:46.275Z,34.47
2022-11-29T08:20:15.164Z,46.13
2022-11-29T08:22:42.366Z,42.25
2022-11-29T08:25:10.021Z,34.85
2022-11-29T08:27:39.122Z,31.42
2022-11-29T08:30:07.055Z,34.28
2022-11-29T08:32:34.517Z,36.38
2022-11-29T08:35:01.413Z,33.67
2022-11-29T08:37:28.141Z,36.58
2022-11-29T08:39:55.294Z,34.92
2022-11-29T08:42:22.042Z,37.00
2022-11-29T08:44:48.862Z,32.42
2022-11-29T08:47:34.389Z,35.25
2022-11-29T08:50:01.524Z,32.17
2022-11-29T08:52:48.274Z,36.55
2022-11-29T08:55:15.779Z,36.60
2022-11-29T08:57:42.861Z,31.10
2022-11-29T09:00:10.568Z,30.33
2022-11-29T09:02:38.125Z,34.83
2022-11-29T09:05:06.856Z,36.10
2022-11-29T09:07:34.138Z,34.17
2022-11-29T09:10:05.328Z,34.72
2022-11-29T09:12:32.747Z,33.05
2022-11-29T09:14:59.544Z,33.83
2022-11-29T09:17:26.605Z,32.67
2022-11-29T09:19:53.352Z,32.28
2022-11-29T09:22:20.072Z,28.60
2022-11-29T09:24:47.168Z,28.35
2022-11-29T09:27:14.332Z,31.13
2022-11-29T09:29:41.114Z,29.77
2022-11-29T09:32:08.304Z,32.13
2022-11-29T09:34:35.380Z,32.45
2022-11-29T09:37:04.952Z,34.08
2022-11-29T09:39:33.116Z,77.35
2022-11-29T09:42:47.160Z,112.78
2022-11-29T09:45:21.960Z,88.00
2022-11-29T09:47:57.929Z,41.17
2022-11-29T09:50:34.084Z,36.25
2022-11-29T09:53:26.423Z,37.85
2022-11-29T09:56:15.206Z,40.63
2022-11-29T09:58:57.477Z,44.72
2022-11-29T10:01:53.969Z,38.53
2022-11-29T10:04:25.565Z,96.22
2022-11-29T10:07:04.993Z,42.33
2022-11-29T10:09:53.494Z,72.80
2022-11-29T10:12:44.268Z,56.30
2022-11-29T10:15:21.745Z,36.90
2022-11-29T10:18:03.926Z,47.60
2022-11-29T10:20:41.552Z,50.05
2022-11-29T10:23:18.499Z,123.28
2022-11-29T10:25:51.369Z,50.17
2022-11-29T10:28:21.954Z,56.60
2022-11-29T10:30:49.105Z,79.75
2022-11-29T10:33:23.418Z,54.00
2022-11-29T10:36:00.355Z,50.88
2022-11-29T10:38:31.469Z,28.65
2022-11-29T10:41:07.930Z,35.15
2022-11-29T10:43:37.247Z,51.25
2022-11-29T10:46:06.000Z,35.78
2022-11-29T10:48:34.580Z,28.30
2022-11-29T10:51:02.064Z,25.60
2022-11-29T10:53:37.249Z,28.30
2022-11-29T10:56:06.774Z,25.52
2022-11-29T10:58:34.345Z,31.98
2022-11-29T11:01:08.834Z,30.45
2022-11-29T11:03:42.213Z,25.17
2022-11-29T11:06:18.113Z,25.67
2022-11-29T11:09:16.518Z,26.35
2022-11-29T11:11:54.476Z,23.75
2022-11-29T11:14:23.345Z,24.50
2022-11-29T11:16:50.828Z,23.98
2022-11-29T11:19:28.387Z,23.70
2022-11-29T11:21:58.529Z,22.98
2022-11-29T11:24:31.101Z,21.60
2022-11-29T11:26:59.172Z,19.55
2022-11-29T11:29:38.588Z,20.27
2022-11-29T11:32:15.420Z,21.20
2022-11-29T11:34:55.673Z,23.42
2022-11-29T11:37:31.703Z,21.95
2022-11-29T11:40:20.690Z,23.40
2022-11-29T11:42:47.698Z,27.70
2022-11-29T11:45:14.364Z,26.55
2022-11-29T11:47:53.952Z,23.63
2022-11-29T11:50:40.795Z,19.73
2022-11-29T11:53:20.740Z,19.95
2022-11-29T11:56:00.946Z,20.20
2022-11-29T11:58:45.175Z,17.25
2022-11-29T12:04:12.342Z,23.73
2022-11-29T12:06:45.973Z,21.38
2022-11-29T12:09:21.619Z,20.38
2022-11-29T12:12:03.622Z,22.77
2022-11-29T12:14:50.686Z,21.52
2022-11-29T12:17:30.119Z,24.08
2022-11-29T12:20:20.290Z,33.33
2022-11-29T12:23:05.131Z,25.98
2022-11-29T12:25:42.961Z,30.45
2022-11-29T12:28:19.868Z,26.83
2022-11-29T12:31:16.406Z,23.73
2022-11-29T12:34:10.765Z,22.60
2022-11-29T12:36:50.820Z,24.95
2022-11-29T12:39:56.943Z,24.02
2022-11-29T12:42:49.385Z,23.38
2022-11-29T12:45:27.073Z,22.42
2022-11-29T12:48:15.306Z,21.65
2022-11-29T12:51:03.815Z,25.13
2022-11-29T12:53:36.727Z,21.20
2022-11-29T12:56:25.356Z,18.65
2022-11-29T12:59:16.341Z,22.40
2022-11-29T13:02:19.464Z,19.50
2022-11-29T13:05:12.364Z,18.90
2022-11-29T13:08:09.824Z,19.03
2022-11-29T13:11:01.317Z,19.10
2022-11-29T13:13:42.303Z,17.08
2022-11-29T13:16:30.855Z,20.02
2022-11-29T13:19:04.046Z,21.38
2022-11-29T13:21:58.545Z,17.80
2022-11-29T13:24:42.980Z,23.98
2022-11-29T13:27:34.008Z,19.95
2022-11-29T13:30:02.708Z,19.40
2022-11-29T13:33:01.108Z,26.40
2022-11-29T13:35:35.005Z,32.20
2022-11-29T13:38:16.303Z,30.27
2022-11-29T13:40:58.480Z,39.95
2022-11-29T13:43:48.570Z,35.53
2022-11-29T13:46:43.658Z,43.95
2022-11-29T13:49:53.198Z,24.63
2022-11-29T13:52:28.980Z,22.83
2022-11-29T13:55:11.479Z,20.27
2022-11-29T14:00:43.855Z,18.15
2022-11-29T14:03:28.985Z,25.38
2022-11-29T14:06:01.639Z,21.02
2022-11-29T14:08:48.021Z,18.55
2022-11-29T14:11:35.389Z,17.63
2022-11-29T14:14:08.913Z,19.67
2022-11-29T14:19:08.674Z,19.02
2022-11-29T14:22:05.769Z,17.30
2022-11-29T14:24:32.516Z,16.85
2022-11-29T14:27:14.256Z,16.15
2022-11-29T14:29:50.066Z,18.63
2022-11-29T14:32:45.784Z,23.42
2022-11-29T14:35:13.042Z,19.00
2022-11-29T14:38:10.810Z,18.92
2022-11-29T14:40:40.524Z,22.48
2022-11-29T14:43:27.795Z,30.67
2022-11-29T14:46:15.761Z,23.25
2022-11-29T14:49:00.260Z,20.10
2022-11-29T14:51:33.342Z,16.23
2022-11-29T14:54:15.781Z,18.75
2022-11-29T14:56:44.886Z,18.38
2022-11-29T14:59:49.987Z,18.58
2022-11-29T15:02:29.212Z,18.92
2022-11-29T15:04:57.563Z,17.40
2022-11-29T15:07:29.390Z,18.35
2022-11-29T15:10:04.915Z,20.52
2022-11-29T15:12:36.889Z,21.90
2022-11-29T15:15:43.132Z,24.60
2022-11-29T15:18:22.644Z,23.38
2022-11-29T15:21:11.110Z,20.95
2022-11-29T15:23:42.740Z,22.40
2022-11-29T15:26:20.818Z,29.50
2022-11-29T15:28:47.525Z,30.63
2022-11-29T15:31:18.778Z,27.65
2022-11-29T15:33:48.592Z,26.70
2022-11-29T15:36:22.469Z,24.50
2022-11-29T15:38:52.813Z,23.50
2022-11-29T15:41:30.400Z,25.95
2022-11-29T15:44:03.169Z,29.70
2022-11-29T15:46:32.312Z,33.45
2022-11-29T15:49:26.072Z,32.92
2022-11-29T15:52:05.575Z,31.38
2022-11-29T15:54:55.960Z,16.90
2022-11-29T15:57:31.719Z,19.92
2022-11-29T16:00:02.073Z,17.48
2022-11-29T16:02:32.593Z,16.15
2022-11-29T16:05:14.269Z,16.48
2022-11-29T16:07:44.370Z,16.63
2022-11-29T16:10:16.569Z,19.23
2022-11-29T16:13:01.284Z,15.80
2022-11-29T16:15:37.152Z,16.13
2022-11-29T16:18:09.535Z,17.80
2022-11-29T16:20:36.429Z,18.50
2022-11-29T16:23:11.541Z,17.50
2022-11-29T16:26:04.564Z,18.77
2022-11-29T16:28:42.031Z,20.23
2022-11-29T16:31:12.460Z,17.17
2022-11-29T16:33:43.671Z,17.77
2022-11-29T16:36:22.131Z,20.88
2022-11-29T16:38:53.308Z,16.70
2022-11-29T16:41:38.939Z,17.90
2022-11-29T16:44:19.829Z,18.73
2022-11-29T16:46:46.699Z,24.83
2022-11-29T16:49:36.315Z,22.67
2022-11-29T16:52:22.612Z,21.65
2022-11-29T16:54:49.934Z,24.50
2022-11-29T16:57:16.885Z,19.02
2022-11-29T16:59:44.002Z,19.00
2022-11-29T17:02:11.834Z,22.42
2022-11-29T17:04:38.750Z,22.00
2022-11-29T17:07:08.265Z,28.13
2022-11-29T17:09:35.502Z,25.35
2022-11-29T17:12:03.189Z,34.35
2022-11-29T17:14:31.483Z,23.02
2022-11-29T17:17:00.781Z,22.63
2022-11-29T17:19:29.329Z,21.75
2022-11-29T17:21:56.220Z,32.53
2022-11-29T17:24:23.706Z,22.25
2022-11-29T17:26:50.782Z,15.98
2022-11-29T17:29:18.250Z,19.67
2022-11-29T17:31:46.425Z,20.20
2022-11-29T17:34:13.440Z,18.15
2022-11-29T17:36:40.517Z,17.40
2022-11-29T17:39:07.847Z,16.77
2022-11-29T17:41:34.900Z,17.77
2022-11-29T17:44:02.045Z,29.35
2022-11-29T17:46:34.924Z,29.80
2022-11-29T17:49:04.342Z,32.65
2022-11-29T17:54:18.992Z,15.00
2022-11-29T17:56:45.725Z,17.05
2022-11-29T17:59:12.447Z,15.35
2022-11-29T18:01:39.233Z,15.27
2022-11-29T18:04:06.714Z,15.27
2022-11-29T18:06:39.061Z,15.05
2022-11-29T18:09:08.311Z,16.00
2022-11-29T18:11:46.504Z,14.85
2022-11-29T18:14:17.549Z,13.98
2022-11-29T18:16:47.205Z,19.27
2022-11-29T18:19:18.534Z,33.70
2022-11-29T18:21:45.439Z,24.17
2022-11-29T18:24:12.539Z,18.52
2022-11-29T18:26:40.149Z,19.35
2022-11-29T18:29:10.047Z,22.20
2022-11-29T18:31:39.293Z,19.33
2022-11-29T18:34:09.653Z,19.50
2022-11-29T18:36:48.050Z,17.20
2022-11-29T18:39:17.742Z,16.70
2022-11-29T18:41:47.162Z,16.77
2022-11-29T18:44:16.669Z,17.15
2022-11-29T18:46:44.948Z,24.02
2022-11-29T18:49:17.163Z,20.45
2022-11-29T18:51:45.359Z,19.48
2022-11-29T18:54:13.711Z,16.52
2022-11-29T18:56:41.173Z,20.52
2022-11-29T18:59:16.302Z,18.92
2022-11-29T19:01:45.123Z,17.38
2022-11-29T19:04:17.578Z,18.20
2022-11-29T19:06:44.776Z,17.88
2022-11-29T19:09:14.293Z,17.63
2022-11-29T19:11:41.638Z,17.10
2022-11-29T19:14:13.911Z,17.70
2022-11-29T19:16:43.339Z,17.50
2022-11-29T19:19:10.169Z,17.67
2022-11-29T19:21:37.089Z,14.75
2022-11-29T19:24:07.541Z,16.63
2022-11-29T19:26:34.790Z,20.85
2022-11-29T19:29:01.753Z,17.10
2022-11-29T19:31:29.544Z,14.45
2022-11-29T19:33:57.418Z,16.58
2022-11-29T19:36:27.221Z,14.43
2022-11-29T19:38:54.998Z,15.75
2022-11-29T19:41:27.777Z,15.15
2022-11-29T19:43:57.398Z,19.35
2022-11-29T19:46:26.540Z,18.70
2022-11-29T19:48:57.621Z,22.02
2022-11-29T19:51:25.769Z,17.25
2022-11-29T19:53:57.451Z,13.82
2022-11-29T19:56:24.910Z,15.73
2022-11-29T19:58:52.164Z,14.95
2022-11-29T20:01:25.072Z,15.77
2022-11-29T20:03:52.530Z,14.38
2022-11-29T20:06:19.892Z,13.63
2022-11-29T20:08:47.338Z,16.27
2022-11-29T20:11:22.640Z,16.58
2022-11-29T20:13:58.165Z,17.15
2022-11-29T20:16:26.707Z,19.13
2022-11-29T20:18:55.821Z,16.73
2022-11-29T20:21:25.577Z,13.80
2022-11-29T20:24:04.803Z,15.10
2022-11-29T20:26:33.641Z,15.32
2022-11-29T20:29:01.753Z,16.45
2022-11-29T20:31:29.215Z,14.07
2022-11-29T20:33:57.395Z,13.40
2022-11-29T20:36:36.141Z,16.15
2022-11-29T20:39:23.615Z,17.75
2022-11-29T20:41:53.336Z,19.70
2022-11-29T20:44:24.087Z,22.63
2022-11-29T20:46:50.973Z,24.42
2022-11-29T20:49:18.181Z,21.65
2022-11-29T20:51:53.457Z,23.83
2022-11-29T20:54:20.361Z,25.10
2022-11-29T20:56:47.064Z,24.65
2022-11-29T20:59:16.197Z,25.10
2022-11-29T21:01:42.997Z,24.60
2022-11-29T21:04:09.858Z,30.00
2022-11-29T21:06:38.358Z,27.80
2022-11-29T21:09:06.320Z,28.15
2022-11-29T21:11:33.393Z,29.08
2022-11-29T21:14:03.762Z,30.40
2022-11-29T21:16:31.955Z,28.15
2022-11-29T21:19:02.044Z,30.10
2022-11-29T21:21:32.856Z,29.17
2022-11-29T21:24:26.878Z,30.65
2022-11-29T21:29:24.444Z,38.90
2022-11-29T21:31:53.792Z,37.55
2022-11-29T21:34:21.101Z,36.05
2022-11-29T21:36:56.535Z,36.85
2022-11-29T21:39:28.502Z,40.92
2022-11-29T21:41:55.233Z,32.85
2022-11-29T21:44:21.964Z,34.65
2022-11-29T21:46:48.761Z,34.15
2022-11-29T21:49:16.512Z,33.03
2022-11-29T21:51:43.403Z,33.63
2022-11-29T21:54:10.175Z,28.63
2022-11-29T21:56:36.899Z,29.98
2022-11-29T21:59:03.963Z,27.45
2022-11-29T22:01:30.746Z,26.08
2022-11-29T22:03:57.510Z,25.27
2022-11-29T22:06:26.066Z,25.55
2022-11-29T22:08:52.967Z,27.95
2022-11-29T22:11:30.785Z,28.67
2022-11-29T22:14:13.940Z,28.15
2022-11-29T22:16:58.221Z,25.88
2022-11-29T22:19:30.429Z,32.17
2022-11-29T22:21:59.530Z,24.73
2022-11-29T22:24:28.681Z,24.63
2022-11-29T22:26:56.225Z,28.50
2022-11-29T22:29:24.009Z,27.92
2022-11-29T22:31:52.978Z,27.38
2022-11-29T22:34:20.684Z,31.20
2022-11-29T22:36:48.031Z,27.92
2022-11-29T22:39:14.977Z,26.08
2022-11-29T22:41:41.760Z,26.17
2022-11-29T22:44:08.649Z,28.52
2022-11-29T22:46:35.708Z,28.58
2022-11-29T22:49:03.584Z,29.33
2022-11-29T22:51:37.925Z,32.15
2022-11-29T22:54:07.133Z,30.23
2022-11-29T22:56:36.725Z,32.35
2022-11-29T22:59:04.488Z,28.70
2022-11-29T23:01:33.565Z,31.33
2022-11-29T23:04:03.839Z,31.00
2022-11-29T23:06:33.059Z,31.20
2022-11-29T23:09:07.525Z,27.55
2022-11-29T23:11:34.363Z,30.88
2022-11-29T23:14:01.136Z,31.48
2022-11-29T23:16:29.651Z,29.52
2022-11-29T23:19:00.766Z,28.80
2022-11-29T23:21:33.365Z,29.35
2022-11-29T23:24:01.430Z,33.55
2022-11-29T23:26:37.363Z,28.33
2022-11-29T23:29:05.858Z,29.90
2022-11-29T23:31:33.192Z,28.13
2022-11-29T23:34:02.227Z,30.98
2022-11-29T23:36:29.241Z,33.35
2022-11-29T23:38:55.983Z,33.80
2022-11-29T23:41:22.720Z,37.10
2022-11-29T23:43:49.442Z,33.97
2022-11-29T23:46:17.376Z,32.47
2022-11-29T23:48:44.770Z,31.13
2022-11-29T23:51:12.525Z,33.83
2022-11-29T23:53:40.144Z,29.13
2022-11-29T23:56:15.526Z,27.02
2022-11-29T23:58:43.527Z,24.98
